Time;durP1;ratioP1;P1;durP2;ratioP2;P2;SDS_P1;SDS_P2;PMS_P1;PMS_P2;Temp;Humidity;BMP_temperature;BMP_pressure;BME280_temperature;BME280_humidity;BME280_pressure;Samples;Min_cycle;Max_cycle;Signal;HPM_P1;HPM_P2
2022/04/04 00:01:50;;;;;;;16.40;13.70;;;;;;;8.53;63.67;99710.81;5070459;28;20215;-57
2022/04/04 00:04:19;;;;;;;17.20;14.88;;;;;;;8.53;63.54;99707.38;5070203;28;20437;-58
2022/04/04 00:06:46;;;;;;;17.07;14.63;;;;;;;8.55;63.43;99706.59;5070714;28;20192;-58
2022/04/04 00:09:13;;;;;;;15.33;13.73;;;;;;;8.52;63.51;99721.00;5070541;28;20237;-58
2022/04/04 00:11:40;;;;;;;19.10;15.33;;;;;;;8.41;63.15;99718.13;5070675;28;20986;-58
2022/04/04 00:14:07;;;;;;;18.60;15.47;;;;;;;8.30;63.69;99711.84;5070715;28;20258;-58
2022/04/04 00:16:34;;;;;;;17.05;14.85;;;;;;;8.24;63.55;99715.06;5070303;28;20441;-58
2022/04/04 00:19:01;;;;;;;17.20;14.10;;;;;;;8.16;64.80;99702.84;5070356;28;20325;-58
2022/04/04 00:21:29;;;;;;;18.00;14.60;;;;;;;7.85;64.80;99660.19;5070228;28;20217;-58
2022/04/04 00:23:56;;;;;;;16.57;14.40;;;;;;;8.11;64.48;99720.66;5070354;28;20200;-58
2022/04/04 00:26:23;;;;;;;17.37;14.27;;;;;;;8.08;64.63;99720.56;5070492;28;20196;-58
2022/04/04 00:28:50;;;;;;;17.10;14.00;;;;;;;8.02;65.48;99717.81;5070322;28;20201;-57
2022/04/04 00:31:17;;;;;;;15.37;13.27;;;;;;;8.01;65.92;99715.22;5070402;28;20190;-57
2022/04/04 00:33:44;;;;;;;16.97;14.83;;;;;;;7.60;66.11;99665.38;5070141;28;20210;-57
2022/04/04 00:36:11;;;;;;;16.60;13.10;;;;;;;7.98;65.60;99722.81;5073372;28;20288;-57
2022/04/04 00:38:40;;;;;;;16.63;13.67;;;;;;;7.97;65.15;99719.38;5074520;28;20202;-57
2022/04/04 00:41:10;;;;;;;16.13;13.80;;;;;;;7.98;65.65;99725.34;5074263;28;20305;-58
2022/04/04 00:43:37;;;;;;;14.90;12.57;;;;;;;7.97;65.34;99727.03;5074198;28;20195;-58
2022/04/04 00:46:04;;;;;;;13.33;11.73;;;;;;;8.04;64.02;99723.88;5073921;28;20198;-58
2022/04/04 00:48:32;;;;;;;16.07;13.60;;;;;;;7.97;64.11;99721.94;5074094;28;20187;-58
2022/04/04 00:51:00;;;;;;;13.87;11.87;;;;;;;8.00;64.39;99713.47;5073701;28;20281;-58
2022/04/04 00:53:27;;;;;;;13.83;12.33;;;;;;;8.08;63.19;99717.13;5074111;28;20229;-58
2022/04/04 00:55:56;;;;;;;14.00;11.53;;;;;;;8.10;63.90;99725.75;5073615;28;20194;-58
2022/04/04 00:58:23;;;;;;;13.13;11.43;;;;;;;8.10;64.64;99715.50;5073545;28;20203;-59
2022/04/04 01:00:52;;;;;;;13.87;12.03;;;;;;;8.10;65.31;99724.03;5073559;28;20227;-58
2022/04/04 01:03:19;;;;;;;11.60;10.23;;;;;;;8.12;65.89;99724.97;5073326;28;20615;-58
2022/04/04 01:05:46;;;;;;;12.83;10.73;;;;;;;8.05;66.46;99717.91;5073527;28;20638;-58
2022/04/04 01:08:13;;;;;;;12.13;10.90;;;;;;;8.06;67.30;99716.22;5073507;28;20686;-58
2022/04/04 01:10:40;;;;;;;12.73;10.57;;;;;;;8.02;67.85;99717.81;5073660;28;20257;-58
2022/04/04 01:13:10;;;;;;;13.10;11.20;;;;;;;8.05;68.06;99712.78;5073312;28;20198;-58
2022/04/04 01:15:37;;;;;;;12.27;11.03;;;;;;;8.06;67.03;99716.22;5073498;28;20627;-57
2022/04/04 01:18:05;;;;;;;14.90;11.57;;;;;;;8.03;66.85;99717.00;5073485;28;20202;-58
2022/04/04 01:20:32;;;;;;;14.07;12.40;;;;;;;8.06;66.83;99718.78;5073327;28;20194;-57
2022/04/04 01:22:59;;;;;;;17.90;11.67;;;;;;;8.05;66.84;99723.03;5073099;28;20225;-58
2022/04/04 01:25:30;;;;;;;17.57;12.73;;;;;;;7.95;67.23;99730.38;5073070;28;20199;-58
2022/04/04 01:27:58;;;;;;;14.97;12.17;;;;;;;8.04;67.31;99725.56;5073370;28;20197;-58
2022/04/04 01:30:26;;;;;;;14.07;12.00;;;;;;;7.90;66.20;99708.91;5073309;28;20192;-57
2022/04/04 01:32:53;;;;;;;12.60;10.87;;;;;;;8.02;66.23;99738.28;5073317;28;20195;-58
2022/04/04 01:35:21;;;;;;;16.53;11.63;;;;;;;8.07;65.28;99741.00;5073429;28;20199;-58
2022/04/04 01:37:48;;;;;;;13.37;11.30;;;;;;;8.08;65.47;99748.69;5073075;28;20199;-58
2022/04/04 01:40:16;;;;;;;13.50;11.50;;;;;;;8.09;64.81;99747.91;5073196;28;20729;-58
2022/04/04 01:42:48;;;;;;;12.63;11.13;;;;;;;8.10;63.88;99743.66;5072958;28;20308;-58
2022/04/04 01:45:15;;;;;;;16.77;11.47;;;;;;;8.13;63.40;99749.69;5072978;28;20231;-58
2022/04/04 01:47:42;;;;;;;12.07;10.77;;;;;;;8.11;63.63;99753.03;5071500;28;20194;-58
2022/04/04 01:50:10;;;;;;;13.27;10.77;;;;;;;8.07;63.28;99754.66;5072678;28;20694;-58
2022/04/04 01:52:37;;;;;;;12.80;11.50;;;;;;;8.05;63.95;99758.84;5072874;28;20190;-58
2022/04/04 01:55:04;;;;;;;13.27;11.77;;;;;;;8.05;64.65;99756.28;5072774;28;20198;-58
2022/04/04 01:57:32;;;;;;;15.55;13.95;;;;;;;8.14;65.01;99755.69;5071542;28;20433;-58
2022/04/04 02:00:00;;;;;;;14.37;12.00;;;;;;;8.05;65.27;99757.97;5072540;28;20296;-58
2022/04/04 02:02:27;;;;;;;14.37;12.40;;;;;;;8.04;65.48;99763.94;5072341;28;20222;-58
2022/04/04 02:04:54;;;;;;;13.90;12.40;;;;;;;8.00;65.50;99755.28;5072549;28;20194;-58
2022/04/04 02:07:21;;;;;;;14.30;12.80;;;;;;;7.97;65.79;99773.09;5072600;28;20247;-58
2022/04/04 02:09:48;;;;;;;17.57;13.83;;;;;;;7.91;65.85;99762.66;5072522;28;20192;-58
2022/04/04 02:12:14;;;;;;;13.97;12.47;;;;;;;7.82;65.48;99769.19;5072416;28;20198;-58
2022/04/04 02:14:41;;;;;;;15.27;12.50;;;;;;;7.85;65.02;99767.63;5072277;28;20197;-58
2022/04/04 02:17:10;;;;;;;14.27;12.27;;;;;;;7.76;64.81;99780.09;5072499;28;20281;-59
2022/04/04 02:19:37;;;;;;;14.47;12.70;;;;;;;7.76;64.09;99774.13;5072438;28;20200;-58
2022/04/04 02:22:04;;;;;;;14.87;11.60;;;;;;;7.76;62.28;99779.22;5072114;28;20226;-58
2022/04/04 02:24:31;;;;;;;16.00;11.37;;;;;;;7.70;60.68;99769.69;5071992;28;20278;-58
2022/04/04 02:26:58;;;;;;;13.23;11.83;;;;;;;7.66;60.45;99768.69;5071978;28;20198;-59
2022/04/04 02:29:25;;;;;;;15.47;12.13;;;;;;;7.59;60.05;99771.03;5072252;28;20281;-58
2022/04/04 02:31:52;;;;;;;12.77;11.00;;;;;;;7.58;59.46;99777.81;5071904;28;20555;-58
2022/04/04 02:34:20;;;;;;;14.00;12.50;;;;;;;7.61;58.81;99782.16;5070977;28;20812;-58
2022/04/04 02:36:47;;;;;;;11.77;10.57;;;;;;;7.65;58.30;99781.44;5071859;28;20677;-58
2022/04/04 02:39:14;;;;;;;13.93;11.23;;;;;;;7.62;57.73;99791.56;5071776;28;20569;-58
2022/04/04 02:41:41;;;;;;;12.30;10.30;;;;;;;7.55;57.98;99795.59;5071639;28;20222;-57
2022/04/04 02:44:07;;;;;;;12.70;10.97;;;;;;;7.54;58.01;99793.03;5071640;28;20677;-58
2022/04/04 02:46:35;;;;;;;13.30;11.67;;;;;;;7.44;58.38;99789.31;5071698;28;20241;-58
2022/04/04 02:49:02;;;;;;;13.57;10.57;;;;;;;7.43;58.47;99790.13;5071893;28;20260;-57
2022/04/04 02:51:30;;;;;;;11.67;10.13;;;;;;;7.41;57.86;99799.44;5071667;28;20574;-57
2022/04/04 02:53:57;;;;;;;12.93;10.90;;;;;;;7.40;57.34;99797.69;5071486;28;20194;-57
2022/04/04 02:56:29;;;;;;;11.43;10.03;;;;;;;7.43;55.81;99802.91;5071723;28;20197;-57
2022/04/04 02:58:57;;;;;;;11.00;9.83;;;;;;;7.40;55.57;99790.00;5071043;28;20729;-57
2022/04/04 03:01:24;;;;;;;10.43;8.63;;;;;;;7.43;55.53;99790.13;5071302;28;20232;-57
2022/04/04 03:03:51;;;;;;;12.73;9.63;;;;;;;7.44;55.00;99789.31;5071450;28;20194;-57
2022/04/04 03:06:18;;;;;;;10.43;9.13;;;;;;;7.44;55.52;99791.88;5071317;28;20191;-57
2022/04/04 03:08:46;;;;;;;9.83;8.83;;;;;;;7.46;55.46;99792.78;5071584;28;20194;-57
2022/04/04 03:11:14;;;;;;;11.70;9.70;;;;;;;7.46;55.40;99784.22;5071749;28;20211;-58
2022/04/04 03:13:40;;;;;;;10.30;9.20;;;;;;;7.50;55.81;99779.25;5071600;28;20964;-58
2022/04/04 03:16:08;;;;;;;11.00;9.77;;;;;;;7.54;55.59;99791.34;5071217;28;20198;-58
2022/04/04 03:18:35;;;;;;;11.13;9.33;;;;;;;7.55;55.01;99787.94;5071420;28;20903;-58
2022/04/04 03:21:03;;;;;;;11.53;8.90;;;;;;;7.58;55.16;99790.59;5071234;28;20203;-57
2022/04/04 03:23:31;;;;;;;10.60;9.50;;;;;;;7.42;54.84;99754.25;5070804;28;20217;-58
2022/04/04 03:25:59;;;;;;;10.90;8.87;;;;;;;7.65;55.35;99807.03;5069800;28;20280;-58
2022/04/04 03:28:26;;;;;;;11.60;9.50;;;;;;;7.67;55.81;99798.59;5071026;28;20281;-58
2022/04/04 03:30:53;;;;;;;11.80;10.30;;;;;;;7.69;56.13;99796.94;5071019;28;20637;-57
2022/04/04 03:33:21;;;;;;;14.60;10.40;;;;;;;7.66;56.48;99809.63;5070730;28;20193;-58
2022/04/04 03:35:48;;;;;;;12.90;10.87;;;;;;;7.72;55.84;99793.59;5070450;28;20437;-58
2022/04/04 03:38:15;;;;;;;13.37;10.83;;;;;;;7.56;56.58;99766.69;5070890;28;20289;-58
2022/04/04 03:40:43;;;;;;;15.43;10.70;;;;;;;7.75;56.79;99813.31;5070851;28;20197;-58
2022/04/04 03:43:12;;;;;;;10.27;9.17;;;;;;;7.72;56.56;99809.81;5070742;28;20715;-58
2022/04/04 03:45:39;;;;;;;13.43;9.30;;;;;;;7.66;56.74;99807.06;5070698;28;20555;-58
2022/04/04 03:48:06;;;;;;;12.10;9.47;;;;;;;7.69;56.44;99807.16;5070552;28;20188;-58
2022/04/04 03:50:34;;;;;;;12.30;10.10;;;;;;;7.71;55.97;99817.47;5070735;28;20196;-58
2022/04/04 03:53:01;;;;;;;11.63;9.87;;;;;;;7.67;55.52;99821.59;5070426;28;20557;-58
2022/04/04 03:55:30;;;;;;;11.27;9.47;;;;;;;7.62;55.61;99825.69;5070389;28;20194;-58
2022/04/04 03:57:57;;;;;;;9.60;8.43;;;;;;;7.69;54.88;99827.63;5070343;28;20198;-58
2022/04/04 04:00:26;;;;;;;9.97;8.30;;;;;;;7.71;54.37;99835.34;5070180;28;20282;-58
2022/04/04 04:02:54;;;;;;;10.57;9.47;;;;;;;7.67;55.39;99836.06;5070093;28;20227;-58
2022/04/04 04:05:21;;;;;;;9.40;8.40;;;;;;;7.70;54.22;99834.47;5070263;28;20639;-59
2022/04/04 04:07:48;;;;;;;10.00;8.67;;;;;;;7.74;53.93;99832.91;5070123;28;20194;-59
2022/04/04 04:10:15;;;;;;;9.13;8.23;;;;;;;7.74;53.32;99832.91;5069768;28;20188;-60
2022/04/04 04:12:43;;;;;;;8.90;8.00;;;;;;;7.76;53.34;99831.25;5070406;28;20274;-60
2022/04/04 04:15:13;;;;;;;9.53;8.57;;;;;;;7.68;54.08;99837.81;5070191;28;20203;-60
2022/04/04 04:17:41;;;;;;;13.00;9.43;;;;;;;7.72;54.33;99834.53;5069636;28;20199;-61
2022/04/04 04:20:22;;;;;;;8.93;8.13;;;;;;;7.65;53.81;99837.72;5069905;28;20194;-61
2022/04/04 04:22:52;;;;;;;9.43;8.53;;;;;;;7.68;53.89;99842.94;5069823;28;20313;-60
2022/04/04 04:25:20;;;;;;;10.43;8.40;;;;;;;7.72;53.38;99850.75;5070098;28;20197;-60
2022/04/04 04:27:47;;;;;;;11.65;10.07;;;;;;;7.67;53.38;99841.19;5067881;28;20455;-60
2022/04/04 04:30:15;;;;;;;10.53;8.33;;;;;;;7.75;52.88;99846.56;5075919;28;20191;-60
2022/04/04 04:32:45;;;;;;;12.73;8.50;;;;;;;7.79;52.65;99856.06;5080284;28;20649;-60
2022/04/04 04:35:13;;;;;;;9.67;8.77;;;;;;;7.77;52.77;99879.06;5075695;28;20191;-61
2022/04/04 04:37:40;;;;;;;8.57;7.67;;;;;;;7.77;53.00;99868.81;5072509;28;20302;-60
2022/04/04 04:40:07;;;;;;;9.00;7.67;;;;;;;7.84;52.17;99869.88;5069960;28;20257;-62
2022/04/04 04:42:35;;;;;;;12.97;8.97;;;;;;;7.83;52.17;99875.81;5069979;28;20218;-61
2022/04/04 04:45:03;;;;;;;9.47;8.20;;;;;;;7.78;52.28;99882.44;5070067;28;20206;-58
2022/04/04 04:47:30;;;;;;;9.10;7.90;;;;;;;7.83;52.30;99886.06;5069823;28;20194;-57
2022/04/04 04:49:58;;;;;;;8.57;7.67;;;;;;;7.84;52.18;99896.31;5069940;28;20199;-58
2022/04/04 04:52:26;;;;;;;9.00;8.10;;;;;;;7.67;51.99;99862.50;5069916;28;20206;-58
2022/04/04 04:54:53;;;;;;;8.23;7.33;;;;;;;7.82;51.93;99892.84;5069601;28;20202;-58
2022/04/04 04:57:22;;;;;;;8.80;7.90;;;;;;;7.93;51.81;99901.75;5069605;28;20661;-57
2022/04/04 04:59:49;;;;;;;8.57;7.67;;;;;;;7.91;51.53;99893.13;5069443;28;20227;-57
2022/04/04 05:02:16;;;;;;;11.37;8.80;;;;;;;7.98;51.91;99909.56;5069430;28;20496;-58
2022/04/04 05:04:43;;;;;;;11.17;7.97;;;;;;;8.03;51.76;99903.78;5069652;28;20198;-57
2022/04/04 05:07:13;;;;;;;11.10;8.60;;;;;;;8.12;52.22;99900.66;5069624;28;20199;-58
2022/04/04 05:09:40;;;;;;;9.67;8.67;;;;;;;8.23;51.64;99909.56;5069800;28;20226;-58
2022/04/04 05:12:08;;;;;;;9.93;7.73;;;;;;;8.32;51.57;99901.34;5069418;28;20279;-57
2022/04/04 05:14:36;;;;;;;9.27;7.83;;;;;;;8.41;50.65;99916.97;5075569;28;20199;-58
2022/04/04 05:17:04;;;;;;;9.23;7.63;;;;;;;8.36;50.70;99913.38;5079447;28;20197;-58
2022/04/04 05:19:31;;;;;;;11.37;9.33;;;;;;;8.39;50.80;99913.50;5080228;28;20183;-58
2022/04/04 05:21:58;;;;;;;8.80;7.93;;;;;;;8.48;51.03;99918.91;5082347;28;20198;-58
2022/04/04 05:24:29;;;;;;;8.60;7.70;;;;;;;8.57;50.70;99924.31;5082714;28;20183;-58
2022/04/04 05:26:56;;;;;;;10.30;7.50;;;;;;;8.61;49.72;99926.13;5081794;28;20192;-57
2022/04/04 05:29:23;;;;;;;9.73;7.37;;;;;;;8.63;49.74;99935.59;5083326;28;20197;-58
2022/04/04 05:31:50;;;;;;;8.30;7.10;;;;;;;8.64;49.62;99937.34;5082360;28;20198;-60
2022/04/04 05:34:17;;;;;;;9.37;8.10;;;;;;;8.64;49.19;99939.03;5081367;28;20220;-60
2022/04/04 05:36:44;;;;;;;9.73;7.67;;;;;;;8.68;49.04;99928.94;5076570;28;20203;-61
2022/04/04 05:39:11;;;;;;;9.93;7.97;;;;;;;8.69;49.02;99933.25;5080608;28;20195;-61
2022/04/04 05:41:42;;;;;;;8.53;7.20;;;;;;;8.65;49.47;99944.19;5072269;28;20191;-61
2022/04/04 05:44:09;;;;;;;8.60;7.53;;;;;;;8.70;48.83;99934.13;5072416;28;20215;-60
2022/04/04 05:46:36;;;;;;;7.97;7.17;;;;;;;8.71;48.78;99933.28;5072319;28;20207;-61
2022/04/04 05:49:03;;;;;;;8.40;7.60;;;;;;;8.75;48.39;99941.13;5071941;28;20982;-61
2022/04/04 05:51:31;;;;;;;12.47;7.83;;;;;;;8.80;48.11;99942.13;5072556;28;20667;-60
2022/04/04 05:53:58;;;;;;;13.87;8.30;;;;;;;8.88;47.62;99948.34;5073080;28;20225;-61
2022/04/04 05:56:25;;;;;;;8.63;7.70;;;;;;;8.97;47.58;99955.44;5080239;28;20205;-61
2022/04/04 05:58:53;;;;;;;8.67;7.27;;;;;;;9.09;47.26;99958.34;5080704;28;20986;-60
2022/04/04 06:01:20;;;;;;;8.93;7.30;;;;;;;9.03;47.24;99965.88;5080726;28;20241;-61
2022/04/04 06:03:48;;;;;;;9.98;8.95;;;;;;;9.09;47.29;99967.75;5080919;28;20448;-61
2022/04/04 06:06:14;;;;;;;16.37;10.50;;;;;;;9.28;46.81;99965.78;5082719;28;20219;-61
2022/04/04 06:08:42;;;;;;;12.43;8.67;;;;;;;9.34;46.85;99971.06;5080042;28;20669;-60
2022/04/04 06:11:09;;;;;;;9.27;7.83;;;;;;;9.34;46.28;99963.38;5080492;28;20192;-60
2022/04/04 06:13:36;;;;;;;8.57;7.57;;;;;;;9.34;46.83;99965.94;5062453;28;20286;-60
2022/04/04 06:16:05;;;;;;;12.50;8.57;;;;;;;9.51;46.50;99963.84;5068334;28;20202;-61
2022/04/04 06:18:32;;;;;;;10.13;8.07;;;;;;;9.51;46.12;99963.84;5071916;28;20201;-61
2022/04/04 06:20:59;;;;;;;9.90;8.23;;;;;;;9.59;45.42;99967.47;5071665;28;20187;-60
2022/04/04 06:23:26;;;;;;;9.27;8.37;;;;;;;9.69;45.35;99968.63;5071783;28;20222;-60
2022/04/04 06:25:53;;;;;;;9.27;8.27;;;;;;;9.80;45.25;99968.09;5066895;28;20207;-60
2022/04/04 06:28:20;;;;;;;9.90;8.43;;;;;;;9.76;44.91;99979.09;5051523;28;20192;-61
2022/04/04 06:30:47;;;;;;;9.00;8.10;;;;;;;9.85;44.74;99976.78;5051423;28;20724;-61
2022/04/04 06:33:16;;;;;;;11.33;7.57;;;;;;;9.80;44.71;99977.47;5050647;28;20246;-61
2022/04/04 06:35:42;;;;;;;8.17;7.43;;;;;;;9.78;44.29;99974.00;5051232;28;20205;-60
2022/04/04 06:38:10;;;;;;;9.73;8.33;;;;;;;9.93;44.74;99980.41;5070460;28;20206;-60
2022/04/04 06:40:37;;;;;;;10.90;7.57;;;;;;;10.01;44.03;99973.78;5070210;28;20256;-61
2022/04/04 06:43:04;;;;;;;10.03;7.13;;;;;;;9.95;42.79;99978.75;5071082;28;20219;-60
2022/04/04 06:45:31;;;;;;;7.37;6.67;;;;;;;9.93;42.42;99977.84;5071627;28;20196;-60
2022/04/04 06:47:58;;;;;;;8.67;7.73;;;;;;;9.95;42.61;99991.56;5071108;28;20218;-60
2022/04/04 06:50:26;;;;;;;8.33;7.40;;;;;;;10.02;43.17;99982.34;5071014;28;20313;-60
2022/04/04 06:52:53;;;;;;;8.20;7.33;;;;;;;9.79;43.25;99997.13;5070930;28;20190;-60
2022/04/04 06:55:21;;;;;;;8.80;6.93;;;;;;;9.83;43.12;99970.72;5070787;28;20191;-61
2022/04/04 06:57:47;;;;;;;9.23;7.97;;;;;;;10.04;43.14;99983.25;5070603;28;20199;-61
2022/04/04 07:00:16;;;;;;;7.57;6.87;;;;;;;9.97;41.97;99989.06;5070111;28;20238;-60
2022/04/04 07:02:44;;;;;;;8.30;7.50;;;;;;;9.98;42.79;99983.97;5069666;28;20207;-60
2022/04/04 07:05:11;;;;;;;8.00;7.13;;;;;;;10.14;42.67;99990.38;5069446;28;20195;-60
2022/04/04 07:07:39;;;;;;;8.13;7.33;;;;;;;10.16;43.40;99991.31;5069326;28;20195;-60
2022/04/04 07:10:07;;;;;;;8.47;7.60;;;;;;;10.28;42.79;99977.91;5069299;28;20191;-60
2022/04/04 07:12:34;;;;;;;11.73;7.93;;;;;;;10.23;43.33;99982.06;5069239;28;20684;-61
2022/04/04 07:15:02;;;;;;;9.30;7.77;;;;;;;10.39;43.11;99982.47;5069101;28;20196;-61
2022/04/04 07:17:29;;;;;;;8.53;7.53;;;;;;;10.35;43.28;99987.50;5070027;28;20256;-61
2022/04/04 07:19:56;;;;;;;9.43;8.43;;;;;;;10.46;43.61;99973.22;5069920;28;20191;-62
2022/04/04 07:22:24;;;;;;;8.93;8.03;;;;;;;10.49;43.62;99979.28;5070564;28;20249;-60
2022/04/04 07:24:52;;;;;;;10.57;9.40;;;;;;;10.60;43.48;99977.84;5069839;28;20990;-61
2022/04/04 07:27:19;;;;;;;8.53;7.73;;;;;;;10.72;42.19;99978.97;5070488;28;20250;-61
2022/04/04 07:29:46;;;;;;;8.73;7.73;;;;;;;10.87;42.33;99990.50;5070020;28;20189;-62
2022/04/04 07:32:13;;;;;;;9.40;8.20;;;;;;;11.08;42.40;99980.69;5068763;28;20192;-61
2022/04/04 07:34:40;;;;;;;9.40;7.73;;;;;;;11.20;42.67;99990.38;5069482;28;20188;-61
2022/04/04 07:37:07;;;;;;;9.73;8.43;;;;;;;11.19;41.61;99993.75;5069089;28;20441;-60
2022/04/04 07:39:34;;;;;;;9.33;7.37;;;;;;;11.32;41.67;100000.06;5068927;28;20291;-61
2022/04/04 07:42:02;;;;;;;10.47;9.43;;;;;;;11.23;42.68;99986.13;5069178;28;20196;-62
2022/04/04 07:44:29;;;;;;;10.93;8.90;;;;;;;11.40;42.51;100001.94;5068166;28;20703;-61
2022/04/04 07:46:56;;;;;;;8.87;7.70;;;;;;;11.50;41.61;100003.00;5067865;28;20206;-62
2022/04/04 07:49:23;;;;;;;10.40;8.17;;;;;;;11.58;41.37;100007.47;5059622;28;20648;-61
2022/04/04 07:51:50;;;;;;;8.63;7.73;;;;;;;11.56;41.13;100005.69;5050090;28;20192;-61
2022/04/04 07:54:17;;;;;;;10.70;8.67;;;;;;;11.56;41.52;100009.16;5067363;28;20512;-61
2022/04/04 07:56:46;;;;;;;9.30;8.43;;;;;;;11.70;42.08;100005.16;5069788;28;20199;-60
2022/04/04 07:59:15;;;;;;;8.67;7.67;;;;;;;11.73;41.94;100002.63;5057221;28;20291;-60
2022/04/04 08:01:42;;;;;;;7.77;7.00;;;;;;;12.01;41.20;100008.31;5049921;28;20227;-61
2022/04/04 08:04:09;;;;;;;8.10;7.30;;;;;;;11.93;40.78;100004.72;5049916;28;20212;-60
2022/04/04 08:06:36;;;;;;;8.23;7.43;;;;;;;11.86;41.18;100003.75;5049929;28;20180;-60
2022/04/04 08:09:03;;;;;;;9.70;7.47;;;;;;;11.78;40.79;100001.03;5050060;28;20192;-61
2022/04/04 08:11:30;;;;;;;9.10;8.00;;;;;;;11.91;40.71;99999.56;5049563;28;20447;-60
2022/04/04 08:13:56;;;;;;;9.20;8.30;;;;;;;12.21;41.01;99988.94;5049418;28;20659;-61
2022/04/04 08:16:26;;;;;;;9.33;7.83;;;;;;;12.40;40.37;99997.03;5049651;28;20222;-60
2022/04/04 08:18:53;;;;;;;8.20;7.30;;;;;;;12.58;39.91;99993.03;5049782;28;20232;-62
2022/04/04 08:21:21;;;;;;;8.50;7.70;;;;;;;12.69;39.11;99989.75;5049976;28;20199;-61
2022/04/04 08:23:48;;;;;;;8.73;7.20;;;;;;;12.83;39.51;99984.78;5049918;28;20215;-61
2022/04/04 08:26:14;;;;;;;7.10;6.40;;;;;;;12.76;38.68;99999.31;5049850;28;20203;-61
2022/04/04 08:28:41;;;;;;;8.07;7.27;;;;;;;12.76;39.12;99982.97;5062080;28;20204;-62
2022/04/04 08:31:08;;;;;;;6.87;6.27;;;;;;;12.85;38.32;99972.81;5069498;28;20294;-61
2022/04/04 08:33:37;;;;;;;8.70;7.67;;;;;;;12.94;38.61;99976.38;5069632;28;20622;-61
2022/04/04 08:36:05;;;;;;;10.23;7.03;;;;;;;13.00;38.44;99979.06;5069981;28;20198;-62
2022/04/04 08:38:35;;;;;;;7.93;7.17;;;;;;;13.11;38.05;99966.34;5069280;28;20192;-60
2022/04/04 08:41:04;;;;;;;7.47;6.77;;;;;;;12.89;38.22;99966.84;5069142;28;20207;-60
2022/04/04 08:43:36;;;;;;;7.53;6.73;;;;;;;12.83;39.17;99965.03;5069117;28;20222;-61
2022/04/04 08:46:05;;;;;;;9.13;7.87;;;;;;;13.11;39.21;99956.00;5069551;28;20192;-61
2022/04/04 08:48:32;;;;;;;8.10;7.23;;;;;;;13.02;38.84;99961.88;5069487;28;20630;-60
2022/04/04 08:51:00;;;;;;;6.87;6.23;;;;;;;13.08;38.63;99955.09;5069230;28;20200;-61
2022/04/04 08:53:27;;;;;;;7.23;6.53;;;;;;;13.15;38.42;99944.03;5069280;28;20298;-58
2022/04/04 08:55:56;;;;;;;7.60;6.80;;;;;;;13.05;38.32;99945.56;5070377;28;20278;-59
2022/04/04 08:58:23;;;;;;;6.67;6.00;;;;;;;13.15;37.83;99944.03;5073028;28;20191;-58
2022/04/04 09:00:50;;;;;;;6.77;6.10;;;;;;;13.19;38.43;99933.75;5072736;28;20234;-59
2022/04/04 09:03:21;;;;;;;7.33;6.60;;;;;;;13.43;37.65;99934.03;5071949;28;20286;-59
2022/04/04 09:05:53;;;;;;;7.40;6.63;;;;;;;13.41;37.81;99930.59;5073331;28;20191;-58
2022/04/04 09:08:23;;;;;;;7.33;6.67;;;;;;;13.37;38.34;99905.59;5073320;28;20231;-58
2022/04/04 09:10:54;;;;;;;6.77;5.97;;;;;;;13.64;36.47;99912.78;5072808;28;20192;-58
2022/04/04 09:13:23;;;;;;;5.93;5.43;;;;;;;13.92;35.98;99912.22;5072347;28;20616;-57
2022/04/04 09:15:55;;;;;;;5.80;5.30;;;;;;;14.01;34.39;99904.53;5072946;28;20187;-58
2022/04/04 09:18:41;;;;;;;5.50;5.00;;;;;;;13.91;35.09;99897.56;5073203;28;20196;-58
2022/04/04 09:21:10;;;;;;;5.83;5.23;;;;;;;14.04;35.10;99895.94;5072654;28;20192;-58
2022/04/04 09:23:54;;;;;;;5.50;5.00;;;;;;;13.92;35.35;99890.69;5069061;28;21095;-58
2022/04/04 09:26:32;;;;;;;6.27;5.37;;;;;;;14.07;35.30;99888.22;5070664;28;20273;-58
2022/04/04 09:29:01;;;;;;;6.27;5.67;;;;;;;14.14;35.04;99890.88;5072486;28;20282;-58
2022/04/04 09:31:28;;;;;;;6.33;5.73;;;;;;;14.07;35.16;99880.47;5072247;28;20191;-58
2022/04/04 09:34:01;;;;;;;6.20;5.70;;;;;;;13.84;35.93;99875.13;5072571;28;20199;-57
2022/04/04 09:36:28;;;;;;;6.13;5.53;;;;;;;13.76;36.03;99870.72;5072539;28;20187;-58
2022/04/04 09:39:03;;;;;;;6.50;5.90;;;;;;;14.28;35.68;99862.56;5072439;28;20202;-58
2022/04/04 09:41:31;;;;;;;6.23;5.73;;;;;;;14.18;34.80;99794.41;5077424;28;20200;-58
2022/04/04 09:43:59;;;;;;;5.60;5.03;;;;;;;14.40;35.11;99834.22;5083091;28;20219;-58
2022/04/04 09:46:32;;;;;;;5.60;5.10;;;;;;;14.37;35.07;99829.03;5072260;28;20186;-58
2022/04/04 09:49:08;;;;;;;6.40;5.80;;;;;;;14.26;35.39;99840.97;5075243;28;20794;-58
2022/04/04 09:51:41;;;;;;;6.10;5.60;;;;;;;14.53;34.80;99833.44;5079265;28;20215;-59
2022/04/04 09:54:11;;;;;;;6.00;5.50;;;;;;;14.58;34.44;99839.53;5071529;28;20434;-59
2022/04/04 09:56:38;;;;;;;5.73;5.20;;;;;;;14.32;34.64;99753.19;5082435;28;20193;-57
2022/04/04 09:59:06;;;;;;;6.80;6.03;;;;;;;15.03;34.55;99831.09;5072010;28;20197;-58
2022/04/04 10:01:34;;;;;;;6.30;5.70;;;;;;;15.08;33.89;99819.03;5072159;28;20231;-58
2022/04/04 10:04:03;;;;;;;6.50;5.23;;;;;;;15.35;33.82;99813.91;5071823;28;20298;-58
2022/04/04 10:06:31;;;;;;;7.47;5.40;;;;;;;15.45;33.06;99817.41;5071757;28;20241;-58
2022/04/04 10:08:59;;;;;;;6.67;5.97;;;;;;;15.51;33.24;99804.50;5070874;28;20202;-58
2022/04/04 10:11:30;;;;;;;6.23;5.63;;;;;;;15.64;33.21;99821.78;5071302;28;20284;-59
2022/04/04 10:13:57;;;;;;;7.13;6.40;;;;;;;15.78;33.24;99811.44;5071718;28;20270;-59
2022/04/04 10:16:26;;;;;;;6.47;5.90;;;;;;;15.98;33.47;99809.72;5071114;28;20208;-59
2022/04/04 10:18:56;;;;;;;6.30;5.80;;;;;;;15.91;32.83;99805.38;5071443;28;20211;-58
2022/04/04 10:21:25;;;;;;;6.47;5.80;;;;;;;15.88;32.92;99800.19;5071679;28;20196;-61
2022/04/04 10:23:56;;;;;;;6.87;5.90;;;;;;;16.00;32.91;99801.91;5071291;28;20657;-61
2022/04/04 10:26:30;;;;;;;6.80;6.20;;;;;;;15.89;32.92;99786.38;5071782;28;20196;-61
2022/04/04 10:29:13;;;;;;;10.60;5.37;;;;;;;15.84;32.93;99781.22;5070973;28;20192;-61
2022/04/04 10:31:49;;;;;;;6.37;5.77;;;;;;;15.06;34.11;99787.09;5070212;28;20202;-58
2022/04/04 10:34:18;;;;;;;9.10;6.67;;;;;;;15.20;34.42;99784.56;5080620;28;20183;-58
2022/04/04 10:36:57;;;;;;;6.83;6.20;;;;;;;15.14;34.02;99787.13;5078227;28;20504;-58
2022/04/04 10:39:41;;;;;;;6.63;5.77;;;;;;;14.81;34.81;99769.78;5081349;28;20579;-59
2022/04/04 10:42:36;;;;;;;8.57;6.17;;;;;;;14.61;34.97;99780.03;5078457;28;20618;-58
2022/04/04 10:45:06;;;;;;;6.27;5.67;;;;;;;14.69;35.03;99773.19;5081664;28;20207;-58
2022/04/04 10:47:35;;;;;;;7.20;6.17;;;;;;;14.71;35.18;99760.25;5081277;28;20268;-61
2022/04/04 10:50:18;;;;;;;7.00;6.07;;;;;;;14.82;36.01;99765.47;5081844;28;20194;-59
2022/04/04 10:52:46;;;;;;;6.47;5.87;;;;;;;14.84;34.96;99766.31;5076566;28;20194;-61
2022/04/04 10:55:41;;;;;;;6.97;6.37;;;;;;;14.71;34.88;99752.50;5079972;28;20185;-61
2022/04/04 10:58:14;;;;;;;6.63;6.03;;;;;;;14.83;35.21;99755.16;5074101;28;20237;-61
2022/04/04 11:00:59;;;;;;;12.43;6.60;;;;;;;14.59;36.00;99748.13;5070952;28;20240;-60
2022/04/04 11:03:34;;;;;;;12.37;7.00;;;;;;;13.95;36.02;99699.56;5070652;28;20294;-60
2022/04/04 11:09:11;;;;;;;8.13;6.57;;;;;;;14.66;35.81;99738.69;5071019;28;20260;-61
2022/04/04 11:11:47;;;;;;;6.97;6.27;;;;;;;15.18;35.13;99730.22;5076757;28;20192;-61
2022/04/04 11:14:17;;;;;;;7.75;6.95;;;;;;;15.33;34.75;99727.63;5075882;28;21003;-61
2022/04/04 11:17:30;;;;;;;8.77;7.37;;;;;;;15.96;34.37;99738.84;5074243;28;20227;-61
2022/04/04 11:20:02;;;;;;;6.47;5.80;;;;;;;16.07;33.32;99739.69;5078049;28;20201;-60
2022/04/04 11:22:31;;;;;;;6.87;6.20;;;;;;;16.06;33.23;99742.31;5079850;28;20287;-61
2022/04/04 11:25:03;;;;;;;13.93;7.00;;;;;;;15.84;33.44;99737.16;5083481;28;20216;-60
2022/04/04 11:27:33;;;;;;;10.05;6.90;;;;;;;15.99;33.60;99719.88;5084921;28;20442;-61
2022/04/04 11:30:03;;;;;;;11.93;8.67;;;;;;;16.30;32.92;99695.56;5079747;28;20637;-61
2022/04/04 11:32:33;;;;;;;11.20;7.43;;;;;;;16.74;32.44;99716.16;5067235;28;20202;-63
2022/04/04 11:35:02;;;;;;;10.70;7.73;;;;;;;16.92;32.17;99710.88;5069803;28;20253;-61
2022/04/04 11:37:30;;;;;;;7.70;6.70;;;;;;;16.88;31.64;99710.03;5069957;28;20191;-61
2022/04/04 11:40:06;;;;;;;8.60;6.47;;;;;;;16.52;32.38;99677.31;5069875;28;20183;-61
2022/04/04 11:42:41;;;;;;;10.27;7.37;;;;;;;16.44;32.88;99705.03;5068207;28;20210;-61